Time;durP1;ratioP1;P1;durP2;ratioP2;P2;SDS_P1;SDS_P2;PMS_P1;PMS_P2;Temp;Humidity;BMP_temperature;BMP_pressure;BME280_temperature;BME280_humidity;BME280_pressure;Samples;Min_cycle;Max_cycle;Signal;HPM_P1;HPM_P2
2023/06/22 00:00:12;;;;;;;;;;;26.60;83.40;;;26.88;49.53;98655.34;5028241;28;124084;-73
2023/06/22 00:02:38;;;;;;;;;;;26.60;83.60;;;26.87;49.12;98647.28;5030150;27;123749;-73
2023/06/22 00:05:07;;;;;;;;;;;26.60;83.70;;;26.84;49.48;98654.63;5028703;28;119395;-73
2023/06/22 00:07:33;;;;;;;;;;;26.60;83.90;;;26.81;49.58;98655.47;5030603;27;118329;-73
2023/06/22 00:09:59;;;;;;;;;;;26.60;84.00;;;26.79;49.69;98651.47;5030102;28;123153;-73
2023/06/22 00:12:26;;;;;;;;;;;26.60;84.20;;;26.77;49.33;98654.72;5027593;28;123770;-73
2023/06/22 00:14:52;;;;;;;;;;;26.60;84.30;;;26.73;49.99;98645.44;5026732;28;119369;-72
2023/06/22 00:17:18;;;;;;;;;;;26.50;84.40;;;26.70;49.80;98643.44;5025383;27;118967;-72
2023/06/22 00:19:53;;;;;;;;;;;26.50;84.60;;;26.67;50.21;98645.09;5029098;28;123220;-72
2023/06/22 00:22:27;;;;;;;;;;;26.50;84.80;;;26.65;49.73;98652.44;5027837;28;124177;-72
2023/06/22 00:24:55;;;;;;;;;;;26.40;84.90;;;26.59;50.24;98666.25;5024303;27;121015;-72
2023/06/22 00:27:22;;;;;;;;;;;26.40;85.10;;;26.57;50.02;98657.41;5026521;28;120032;-72
2023/06/22 00:29:48;;;;;;;;;;;26.40;85.30;;;26.54;50.58;98663.09;5027635;28;124179;-72
2023/06/22 00:32:14;;;;;;;;;;;26.30;85.40;;;26.52;50.32;98662.72;5027142;28;123987;-71
2023/06/22 00:34:40;;;;;;;;;;;26.30;85.60;;;26.47;50.25;98654.69;5029732;28;119398;-72
2023/06/22 00:37:11;;;;;;;;;;;26.30;85.90;;;26.42;50.82;98651.06;5025981;27;118673;-72
2023/06/22 00:39:39;;;;;;;;;;;26.30;86.70;;;26.37;50.81;98640.19;5024601;27;125098;-72
2023/06/22 00:42:06;;;;;;;;;;;26.20;86.10;;;26.36;51.07;98641.44;5027232;27;123978;-71
2023/06/22 00:44:35;;;;;;;;;;;26.20;86.30;;;26.36;50.78;98640.63;5026608;28;119461;-72
2023/06/22 00:47:02;;;;;;;;;;;26.20;86.60;;;26.34;50.92;98649.53;5029044;28;119344;-72
2023/06/22 00:49:28;;;;;;;;;;;26.20;86.80;;;26.31;51.39;98650.41;5012624;27;124264;-72
2023/06/22 00:51:58;;;;;;;;;;;26.10;87.00;;;26.29;50.93;98652.84;5018891;28;123902;-72
2023/06/22 00:54:24;;;;;;;;;;;26.10;87.30;;;26.26;51.64;98670.69;5026419;28;118924;-72
2023/06/22 00:56:56;;;;;;;;;;;26.00;87.30;;;26.24;51.57;98670.28;5025942;28;118606;-72
2023/06/22 00:59:23;;;;;;;;;;;26.00;87.50;;;26.23;51.59;98674.38;5025026;27;124145;-72
2023/06/22 01:01:49;;;;;;;;;;;26.00;87.70;;;26.20;51.34;98680.88;5024943;27;123732;-72
2023/06/22 01:04:16;;;;;;;;;;;26.00;87.80;;;26.17;51.85;98673.22;5024429;27;119765;-72
2023/06/22 01:06:51;;;;;;;;;;;26.00;87.90;;;26.12;51.46;98673.69;5027192;27;118691;-71
2023/06/22 01:09:25;;;;;;;;;;;26.00;88.20;;;26.09;51.73;98714.16;5026312;28;125805;-72
2023/06/22 01:12:02;;;;;;;;;;;25.90;88.30;;;26.05;52.34;98724.72;5029177;28;123510;-73
2023/06/22 01:14:37;;;;;;;;;;;25.80;88.70;;;25.95;52.34;98701.75;5012040;28;119676;-73
2023/06/22 01:17:05;;;;;;;;;;;25.80;89.00;;;25.91;52.16;98672.66;5026984;28;119845;-72
2023/06/22 01:19:47;;;;;;;;;;;25.70;89.00;;;25.87;52.10;98682.41;5025239;28;123875;-72
2023/06/22 01:22:16;;;;;;;;;;;25.70;89.30;;;25.84;52.08;98703.84;5028735;28;123704;-73
2023/06/22 01:25:00;;;;;;;;;;;25.60;89.40;;;25.85;52.59;98696.19;5024600;27;119607;-72
2023/06/22 01:27:28;;;;;;;;;;;25.60;89.60;;;25.84;52.22;98671.91;5025557;28;118770;-72
2023/06/22 01:30:01;;;;;;;;;;;25.60;89.70;;;25.84;52.48;98669.09;5010500;28;123159;-71
2023/06/22 01:32:30;;;;;;;;;;;25.60;89.80;;;25.83;52.64;98671.09;5012342;28;123602;-71
2023/06/22 01:35:01;;;;;;;;;;;25.60;90.00;;;25.83;52.29;98682.41;5025738;28;119491;-71
2023/06/22 01:37:32;;;;;;;;;;;25.60;90.00;;;25.84;52.30;98686.88;5028661;28;118365;-71
2023/06/22 01:40:01;;;;;;;;;;;25.60;90.10;;;25.83;52.99;98665.44;5025050;28;124202;-71
2023/06/22 01:42:29;;;;;;;;;;;25.60;90.10;;;25.81;52.46;98665.03;5011583;28;124083;-71
2023/06/22 01:44:56;;;;;;;;;;;25.60;90.20;;;25.80;52.96;98674.75;5025976;27;119491;-71
2023/06/22 01:47:23;;;;;;;;;;;25.50;90.20;;;25.78;52.76;98672.34;5025576;28;117977;-71
2023/06/22 01:49:52;;;;;;;;;;;25.50;90.60;;;25.79;52.75;98664.66;5011992;28;123273;-71
2023/06/22 01:52:20;;;;;;;;;;;25.60;90.40;;;25.77;52.84;98670.75;5011831;28;123152;-71
2023/06/22 01:54:49;;;;;;;;;;;25.50;90.40;;;25.77;52.74;98687.72;5025789;28;119578;-71
2023/06/22 01:57:16;;;;;;;;;;;25.50;90.70;;;25.75;53.26;98689.38;5026807;27;118764;-71
2023/06/22 01:59:58;;;;;;;;;;;25.50;90.50;;;25.72;52.99;98699.50;5008212;28;123331;-71
2023/06/22 02:02:29;;;;;;;;;;;25.50;90.50;;;25.70;53.24;98690.59;5023666;27;124042;-71
2023/06/22 02:04:59;;;;;;;;;;;25.50;90.50;;;25.68;52.91;98703.56;5025221;28;120746;-70
2023/06/22 02:07:32;;;;;;;;;;;25.50;90.60;;;25.66;53.47;98692.69;5026673;28;119651;-71
2023/06/22 02:10:01;;;;;;;;;;;25.40;90.70;;;25.64;53.46;98697.16;5025255;28;124416;-71
2023/06/22 02:12:28;;;;;;;;;;;25.40;90.80;;;25.57;53.32;98706.47;5023891;27;124516;-71
2023/06/22 02:14:55;;;;;;;;;;;25.30;90.90;;;25.48;53.39;98697.66;5025069;28;119250;-71
2023/06/22 02:17:21;;;;;;;;;;;25.30;90.90;;;25.45;53.84;98696.47;5024761;28;118760;-71
2023/06/22 02:19:50;;;;;;;;;;;25.30;90.90;;;25.44;53.84;98706.19;5026384;28;124194;-71
2023/06/22 02:22:16;;;;;;;;;;;25.30;91.00;;;25.44;53.63;98706.19;5028372;27;122904;-70
2023/06/22 02:24:50;;;;;;;;;;;25.30;91.10;;;25.43;53.66;98692.44;5024586;27;119142;-71
2023/06/22 02:27:16;;;;;;;;;;;25.20;91.10;;;25.43;54.04;98692.44;5025554;27;118731;-71
2023/06/22 02:29:43;;;;;;;;;;;25.20;91.20;;;25.42;53.80;98696.50;5023174;27;123788;-71
2023/06/22 02:32:10;;;;;;;;;;;25.20;91.20;;;25.42;53.67;98688.81;5025020;28;124367;-71
2023/06/22 02:34:36;;;;;;;;;;;25.20;91.30;;;25.42;53.93;98676.72;5027962;28;119492;-71
2023/06/22 02:37:03;;;;;;;;;;;25.20;91.40;;;25.40;54.09;98677.09;5024965;28;118782;-71
2023/06/22 02:39:29;;;;;;;;;;;25.20;91.40;;;25.39;54.23;98680.34;5028823;27;124057;-71
2023/06/22 02:41:55;;;;;;;;;;;25.20;91.40;;;25.37;54.32;98672.28;5024626;27;124473;-71
2023/06/22 02:44:24;;;;;;;;;;;25.20;91.50;;;25.37;54.41;98669.47;5025955;28;119807;-71
2023/06/22 02:46:50;;;;;;;;;;;25.10;91.50;;;25.35;54.43;98663.41;5027854;28;118732;-71
2023/06/22 02:49:16;;;;;;;;;;;25.10;91.50;;;25.34;54.48;98656.94;5025593;28;124224;-71
2023/06/22 02:51:48;;;;;;;;;;;25.10;91.60;;;25.33;54.05;98665.84;5026894;27;123503;-71
2023/06/22 02:54:16;;;;;;;;;;;25.10;91.70;;;25.29;54.21;98659.41;5027010;28;120079;-71
2023/06/22 02:56:46;;;;;;;;;;;25.10;91.70;;;25.27;54.52;98659.03;5022865;27;120210;-71
2023/06/22 02:59:12;;;;;;;;;;;25.10;91.80;;;25.24;54.23;98663.47;5027473;27;123813;-71
2023/06/22 03:01:39;;;;;;;;;;;25.10;91.80;;;25.22;54.56;98659.47;5024431;28;123469;-71
2023/06/22 03:04:07;;;;;;;;;;;25.00;91.80;;;25.21;54.64;98657.88;5028656;27;119624;-71
2023/06/22 03:06:33;;;;;;;;;;;25.00;91.90;;;25.17;54.95;98657.88;5024463;28;118615;-71
2023/06/22 03:09:04;;;;;;;;;;;25.00;92.00;;;25.14;54.67;98656.66;5025761;28;124793;-71
2023/06/22 03:11:31;;;;;;;;;;;24.90;92.00;;;25.11;54.88;98651.81;5024288;28;124073;-71
2023/06/22 03:13:58;;;;;;;;;;;24.90;92.00;;;25.08;54.73;98652.66;5024142;28;119433;-71
2023/06/22 03:16:26;;;;;;;;;;;24.90;92.40;;;25.06;55.11;98649.44;5007235;28;118696;-71
2023/06/22 03:18:53;;;;;;;;;;;24.90;92.10;;;25.05;54.91;98644.22;5023646;28;124272;-71
2023/06/22 03:21:21;;;;;;;;;;;24.90;92.20;;;24.98;55.26;98650.69;5024157;28;123364;-71
2023/06/22 03:23:47;;;;;;;;;;;24.80;92.20;;;24.94;55.37;98657.59;5026892;28;119249;-71
2023/06/22 03:26:17;;;;;;;;;;;24.80;92.30;;;24.90;55.33;98654.78;5026857;27;119047;-71
2023/06/22 03:28:43;;;;;;;;;;;24.70;92.30;;;24.86;55.49;98649.16;5028356;28;124203;-71
2023/06/22 03:31:09;;;;;;;;;;;24.70;92.40;;;24.85;55.34;98652.38;5011909;27;123128;-71
2023/06/22 03:33:36;;;;;;;;;;;24.70;92.40;;;24.85;55.22;98646.72;5028661;28;119353;-71
2023/06/22 03:36:03;;;;;;;;;;;24.70;92.40;;;24.84;55.18;98650.78;5029134;28;118417;-71
2023/06/22 03:38:29;;;;;;;;;;;24.60;92.40;;;24.85;55.58;98655.22;5031722;27;123722;-71
2023/06/22 03:40:55;;;;;;;;;;;24.70;92.50;;;24.85;55.52;98656.03;5030020;27;124253;-71
2023/06/22 03:43:23;;;;;;;;;;;24.60;92.50;;;24.85;55.39;98649.56;5032480;27;120713;-71
2023/06/22 03:45:51;;;;;;;;;;;24.60;92.50;;;24.85;55.28;98649.56;5026807;27;119815;-70
2023/06/22 03:48:18;;;;;;;;;;;24.60;92.60;;;24.84;55.30;98645.13;5052359;27;124356;-71
2023/06/22 03:50:44;;;;;;;;;;;24.60;92.60;;;24.82;55.25;98648.38;5033280;27;124377;-71
2023/06/22 03:53:13;;;;;;;;;;;24.60;92.60;;;24.80;55.53;98630.22;5040218;27;119580;-71
2023/06/22 03:55:49;;;;;;;;;;;24.60;92.60;;;24.79;55.39;98632.22;5042368;27;118766;-71
2023/06/22 03:58:15;;;;;;;;;;;24.60;92.60;;;24.78;55.62;98633.47;5022959;27;124615;-72
2023/06/22 04:00:41;;;;;;;;;;;24.60;92.70;;;24.79;55.32;98631.44;5044855;27;124076;-71
2023/06/22 04:03:08;;;;;;;;;;;24.60;92.70;;;24.81;55.55;98640.31;5047791;27;120086;-71
2023/06/22 04:05:38;;;;;;;;;;;24.50;92.70;;;24.80;55.47;98645.16;5048298;27;118628;-71
2023/06/22 04:08:05;;;;;;;;;;;24.50;92.70;;;24.80;55.54;98639.50;5050096;27;123228;-71
2023/06/22 04:10:31;;;;;;;;;;;24.50;92.80;;;24.80;55.52;98647.19;5049659;27;123297;-71
2023/06/22 04:12:58;;;;;;;;;;;24.50;92.80;;;24.79;55.27;98634.25;5029017;27;119504;-71
2023/06/22 04:15:24;;;;;;;;;;;24.50;92.80;;;24.77;55.70;98633.84;5034813;27;118260;-71
2023/06/22 04:17:50;;;;;;;;;;;24.50;92.80;;;24.76;55.41;98626.59;5037382;27;124088;-71
2023/06/22 04:20:16;;;;;;;;;;;24.50;92.80;;;24.75;55.49;98628.63;5040946;27;123878;-71
2023/06/22 04:22:43;;;;;;;;;;;24.50;92.80;;;24.74;55.46;98626.22;5030904;27;119387;-71
2023/06/22 04:25:09;;;;;;;;;;;24.50;92.90;;;24.74;55.76;98626.22;5046784;27;118755;-71
2023/06/22 04:27:37;;;;;;;;;;;24.50;92.90;;;24.73;55.77;98625.41;5026338;27;124309;-71
2023/06/22 04:30:06;;;;;;;;;;;24.50;92.90;;;24.73;55.85;98628.25;5037449;27;124589;-71
2023/06/22 04:32:35;;;;;;;;;;;24.50;93.00;;;24.75;55.78;98625.00;5026103;27;120479;-71
2023/06/22 04:35:04;;;;;;;;;;;24.50;93.10;;;24.74;55.80;98614.91;5025524;28;119847;-71
2023/06/22 04:37:31;;;;;;;;;;;24.50;93.10;;;24.76;55.66;98609.66;5025825;28;124047;-71
2023/06/22 04:39:57;;;;;;;;;;;24.50;93.10;;;24.76;56.07;98613.28;5026437;28;124012;-71
2023/06/22 04:42:26;;;;;;;;;;;24.50;93.20;;;24.77;56.02;98614.09;5027136;28;119507;-71
2023/06/22 04:44:52;;;;;;;;;;;24.50;93.20;;;24.77;55.99;98611.25;5028411;28;118811;-72
2023/06/22 04:47:21;;;;;;;;;;;24.50;93.20;;;24.77;55.65;98606.44;5028910;28;124787;-72
2023/06/22 04:49:47;;;;;;;;;;;24.50;93.20;;;24.78;56.05;98607.22;5011496;28;123643;-72
2023/06/22 04:52:17;;;;;;;;;;;24.50;93.20;;;24.80;55.82;98596.31;5030620;27;119490;-71
2023/06/22 04:54:47;;;;;;;;;;;24.50;93.20;;;24.83;55.94;98589.84;5012107;28;119293;-72
2023/06/22 04:57:14;;;;;;;;;;;24.50;93.30;;;24.85;55.96;98595.88;5024146;27;124465;-71
2023/06/22 04:59:41;;;;;;;;;;;24.50;93.30;;;24.88;55.69;98595.84;5025588;28;124549;-71
2023/06/22 05:02:10;;;;;;;;;;;24.50;93.30;;;24.91;55.84;98597.06;5022336;27;119594;-71
2023/06/22 05:04:38;;;;;;;;;;;24.60;93.30;;;24.94;55.86;98593.41;5025876;28;118816;-71
2023/06/22 05:07:04;;;;;;;;;;;24.60;93.30;;;24.98;55.48;98587.72;5028025;28;124114;-71
2023/06/22 05:09:30;;;;;;;;;;;24.60;93.30;;;25.01;55.72;98587.69;5025420;28;124524;-71
2023/06/22 05:11:57;;;;;;;;;;;24.70;93.30;;;25.03;55.68;98605.03;5026982;28;119437;-71
2023/06/22 05:14:23;;;;;;;;;;;24.70;93.30;;;25.07;55.72;98597.34;5025509;28;118981;-71
2023/06/22 05:16:51;;;;;;;;;;;24.70;93.20;;;25.10;55.23;98592.88;5025506;28;124329;-71
2023/06/22 05:19:18;;;;;;;;;;;24.70;93.20;;;25.13;55.12;98590.00;5032418;27;123932;-71
2023/06/22 05:21:44;;;;;;;;;;;24.70;93.20;;;25.18;54.99;98579.53;5041924;27;120609;-71
2023/06/22 05:24:10;;;;;;;;;;;24.80;93.20;;;25.22;55.24;98583.13;5031557;27;118807;-70
2023/06/22 05:26:39;;;;;;;;;;;24.80;93.10;;;25.25;55.17;98573.78;5025193;27;124853;-71
2023/06/22 05:29:05;;;;;;;;;;;24.90;93.10;;;25.27;54.73;98572.16;5020403;27;122660;-71
2023/06/22 05:31:31;;;;;;;;;;;24.90;93.10;;;25.28;54.60;98567.28;5032478;27;119634;-70
2023/06/22 05:33:58;;;;;;;;;;;24.90;93.00;;;25.25;54.76;98568.94;5009303;28;117684;-70
2023/06/22 05:36:24;;;;;;;;;;;24.90;93.00;;;25.24;54.84;98573.00;5028713;27;124804;-75
2023/06/22 05:38:52;;;;;;;;;;;24.90;93.00;;;25.26;54.44;98569.75;5019915;28;122970;-72
2023/06/22 05:41:18;;;;;;;;;;;24.90;93.00;;;25.28;54.61;98565.28;5009611;27;119339;-73
2023/06/22 05:43:44;;;;;;;;;;;24.90;92.90;;;25.33;54.64;98579.00;5015945;28;119348;-72
2023/06/22 05:46:11;;;;;;;;;;;24.90;92.90;;;25.33;54.73;98575.34;5028148;27;124314;-72
2023/06/22 05:48:37;;;;;;;;;;;24.90;92.80;;;25.34;54.30;98572.09;5021278;28;123891;-72
2023/06/22 05:51:06;;;;;;;;;;;24.90;92.80;;;25.39;54.40;98567.19;5019140;28;121624;-73
2023/06/22 05:53:33;;;;;;;;;;;25.00;92.80;;;25.44;54.57;98581.72;5024031;28;118957;-74
2023/06/22 05:55:59;;;;;;;;;;;25.00;92.80;;;25.47;54.35;98575.22;5017660;27;125619;-74
2023/06/22 05:58:26;;;;;;;;;;;25.00;92.70;;;25.50;53.91;98563.06;5016292;27;123818;-73
2023/06/22 06:00:52;;;;;;;;;;;25.00;92.70;;;25.54;53.97;98566.66;5021199;28;119314;-71
2023/06/22 06:03:18;;;;;;;;;;;25.10;92.60;;;25.57;53.87;98567.84;5021518;28;119348;-71
2023/06/22 06:05:45;;;;;;;;;;;25.10;92.50;;;25.55;53.66;98571.09;5016629;28;125430;-72
2023/06/22 06:08:12;;;;;;;;;;;25.10;92.50;;;25.54;53.68;98566.66;5017243;27;124199;-72
2023/06/22 06:10:38;;;;;;;;;;;25.10;92.40;;;25.54;53.57;98558.16;5016707;28;120584;-71
2023/06/22 06:13:05;;;;;;;;;;;25.20;92.30;;;25.56;53.74;98555.72;5022765;28;119971;-72
2023/06/22 06:15:32;;;;;;;;;;;25.20;92.30;;;25.58;53.32;98552.47;5024274;28;124252;-73
2023/06/22 06:17:58;;;;;;;;;;;25.20;92.30;;;25.60;53.47;98557.72;5019739;28;123819;-74
2023/06/22 06:20:27;;;;;;;;;;;25.20;92.30;;;25.62;53.69;98556.06;5022704;27;119548;-72
2023/06/22 06:22:54;;;;;;;;;;;25.20;92.20;;;25.68;53.64;98554.38;5026124;27;118765;-72
2023/06/22 06:25:21;;;;;;;;;;;25.30;92.20;;;25.74;53.03;98554.75;5021625;27;123565;-72
2023/06/22 06:27:49;;;;;;;;;;;25.30;92.10;;;25.76;52.78;98555.09;5024498;27;124450;-72
2023/06/22 06:30:19;;;;;;;;;;;25.30;92.10;;;25.78;53.03;98558.31;5024747;28;119591;-72
2023/06/22 06:32:46;;;;;;;;;;;25.30;92.10;;;25.80;53.02;98564.38;5026804;27;118865;-72
2023/06/22 06:35:14;;;;;;;;;;;25.30;92.10;;;25.87;52.81;98558.69;5023369;28;124224;-72
2023/06/22 06:37:42;;;;;;;;;;;25.40;92.10;;;25.93;52.52;98559.81;5025818;27;122214;-73
2023/06/22 06:40:12;;;;;;;;;;;25.40;92.00;;;25.98;52.33;98559.34;5027850;27;118669;-72
2023/06/22 06:42:44;;;;;;;;;;;25.40;91.90;;;25.99;52.61;98557.31;5024932;28;119438;-73
2023/06/22 06:45:24;;;;;;;;;;;25.40;92.00;;;25.97;52.40;98551.28;5024511;28;124600;-71
2023/06/22 06:47:51;;;;;;;;;;;25.40;91.90;;;25.99;52.21;98560.16;5025623;28;124330;-73
2023/06/22 06:50:23;;;;;;;;;;;25.40;91.80;;;26.05;52.36;98557.66;5025052;28;119872;-72
2023/06/22 06:52:50;;;;;;;;;;;25.50;91.80;;;26.13;51.77;98559.16;5018101;28;118702;-72
2023/06/22 06:55:17;;;;;;;;;;;25.60;91.70;;;26.21;52.02;98555.03;5022894;27;124446;-72
2023/06/22 06:57:48;;;;;;;;;;;25.60;91.60;;;26.30;51.60;98555.28;5022893;27;124167;-72
2023/06/22 07:00:15;;;;;;;;;;;25.70;91.40;;;26.34;51.37;98555.28;5024198;27;121368;-72
2023/06/22 07:02:47;;;;;;;;;;;25.70;91.30;;;26.42;51.50;98554.75;5021395;27;119447;-73
2023/06/22 07:05:13;;;;;;;;;;;25.90;91.30;;;26.52;51.36;98552.19;5021948;27;124337;-72
2023/06/22 07:07:41;;;;;;;;;;;26.00;91.20;;;26.64;50.86;98555.25;5019411;27;123161;-72
2023/06/22 07:10:08;;;;;;;;;;;26.00;91.10;;;26.72;50.43;98552.34;5027793;27;119509;-72
2023/06/22 07:12:34;;;;;;;;;;;26.10;91.10;;;26.78;50.46;98548.56;5024509;28;118723;-73
2023/06/22 07:15:03;;;;;;;;;;;26.20;91.00;;;26.86;50.76;98538.72;5008353;27;124280;-75
2023/06/22 07:17:29;;;;;;;;;;;26.20;90.90;;;26.94;50.31;98541.47;5014518;27;123886;-72
2023/06/22 07:19:55;;;;;;;;;;;26.30;90.70;;;27.00;49.95;98525.56;5030367;27;119334;-71
2023/06/22 07:22:21;;;;;;;;;;;26.40;90.50;;;27.05;49.91;98528.69;5013943;27;119395;-72
2023/06/22 07:24:49;;;;;;;;;;;26.40;90.40;;;27.08;49.63;98521.38;5028373;27;124168;-74
2023/06/22 07:27:18;;;;;;;;;;;26.50;90.30;;;27.13;49.28;98512.38;5021242;27;124123;-71
2023/06/22 07:29:45;;;;;;;;;;;26.50;90.20;;;27.24;49.57;98510.22;5024110;28;120064;-73
2023/06/22 07:32:11;;;;;;;;;;;26.60;90.10;;;27.33;49.06;98514.50;5008844;27;118747;-74
2023/06/22 07:34:38;;;;;;;;;;;26.70;90.00;;;27.40;48.54;98508.69;5019810;27;124136;-72
2023/06/22 07:37:04;;;;;;;;;;;26.80;89.70;;;27.46;48.27;98506.97;5024364;27;126229;-73
2023/06/22 07:39:31;;;;;;;;;;;26.80;89.30;;;27.52;48.44;98494.69;5022168;27;119665;-73
2023/06/22 07:41:57;;;;;;;;;;;26.90;89.20;;;27.62;48.33;98497.72;5018913;27;118530;-73
2023/06/22 07:44:23;;;;;;;;;;;27.00;89.20;;;27.71;48.30;98495.94;5023226;27;125017;-76
2023/06/22 07:46:49;;;;;;;;;;;27.10;88.70;;;27.75;47.86;98488.16;5023201;27;123993;-75
2023/06/22 07:49:17;;;;;;;;;;;27.10;88.30;;;27.77;47.59;98477.16;5022823;27;120393;-79
2023/06/22 07:51:43;;;;;;;;;;;27.10;87.70;;;27.81;47.72;98470.63;5021068;27;119494;-83
2023/06/22 07:54:09;;;;;;;;;;;27.20;87.90;;;27.88;47.66;98468.44;5015350;27;124478;-81
2023/06/22 07:56:37;;;;;;;;;;;27.30;87.80;;;27.95;47.55;98464.66;5017475;27;124004;-81
2023/06/22 07:59:03;;;;;;;;;;;27.40;87.70;;;27.94;47.31;98460.19;5007896;28;118858;-80
2023/06/22 08:01:32;;;;;;;;;;;27.40;87.30;;;27.97;47.15;98459.34;5016842;27;119179;-79
2023/06/22 08:03:59;;;;;;;;;;;27.40;86.90;;;27.97;47.49;98462.19;5016243;27;124166;-80
2023/06/22 08:06:27;;;;;;;;;;;27.40;87.10;;;27.98;47.10;98477.97;5020729;27;123203;-79
2023/06/22 08:08:58;;;;;;;;;;;27.40;86.90;;;27.95;47.58;98476.03;5025661;27;118897;-81
2023/06/22 08:11:25;;;;;;;;;;;27.50;86.60;;;28.02;46.90;98489.25;5019356;27;118819;-77
2023/06/22 08:13:52;;;;;;;;;;;27.50;86.70;;;28.09;47.15;98498.44;5024987;27;124819;-79
2023/06/22 08:16:18;;;;;;;;;;;27.60;86.50;;;28.15;46.76;98508.03;5023625;27;123239;-78
2023/06/22 08:18:44;;;;;;;;;;;27.60;86.20;;;28.23;47.03;98503.00;5020279;27;119446;-76
2023/06/22 08:21:11;;;;;;;;;;;27.70;86.30;;;28.32;46.70;98499.56;5011499;27;119133;-77
2023/06/22 08:23:39;;;;;;;;;;;27.80;86.10;;;28.36;46.02;98508.81;5021125;28;123477;-77
2023/06/22 08:26:08;;;;;;;;;;;27.90;85.30;;;28.38;46.25;98504.28;5028583;27;124116;-75
2023/06/22 08:28:34;;;;;;;;;;;27.90;85.10;;;28.44;46.04;98513.13;5019336;27;119515;-79
2023/06/22 08:31:02;;;;;;;;;;;28.00;85.10;;;28.49;46.02;98520.34;5014364;27;119679;-79
2023/06/22 08:33:28;;;;;;;;;;;28.00;84.70;;;28.52;45.66;98514.56;5029205;28;124186;-80
2023/06/22 08:35:55;;;;;;;;;;;28.10;84.50;;;28.56;45.67;98532.34;5026615;27;123211;-79
2023/06/22 08:38:21;;;;;;;;;;;28.10;84.40;;;28.60;45.91;98527.38;5025770;28;120362;-75
2023/06/22 08:40:47;;;;;;;;;;;28.20;84.30;;;28.67;45.75;98523.56;5019576;27;119829;-76
2023/06/22 08:43:16;;;;;;;;;;;28.20;84.10;;;28.73;45.51;98532.38;5020357;27;124121;-78
2023/06/22 08:45:42;;;;;;;;;;;28.30;84.00;;;28.78;45.43;98517.63;5026033;27;124553;-81
2023/06/22 08:48:09;;;;;;;;;;;28.30;83.50;;;28.83;44.88;98511.41;5024601;27;119203;-83
2023/06/22 08:50:35;;;;;;;;;;;28.40;83.20;;;28.93;45.08;98498.94;5037294;27;118495;-81
2023/06/22 08:53:04;;;;;;;;;;;28.50;83.20;;;29.01;44.72;98494.69;5025424;27;124325;-83
2023/06/22 08:55:30;;;;;;;;;;;28.50;83.00;;;29.11;44.60;98492.06;5024818;27;124562;-83
2023/06/22 08:57:56;;;;;;;;;;;28.60;82.80;;;29.22;44.70;98486.88;5023859;27;119453;-86
2023/06/22 09:00:22;;;;;;;;;;;28.70;82.70;;;29.32;44.50;98488.66;5030902;27;121211;-80
2023/06/22 09:02:49;;;;;;;;;;;28.80;82.50;;;29.41;43.75;98494.50;5013732;28;123274;-80
2023/06/22 09:05:18;;;;;;;;;;;28.80;82.10;;;29.45;43.03;98495.22;5025054;27;124029;-80
2023/06/22 09:07:46;;;;;;;;;;;28.90;80.70;;;29.46;42.89;98499.66;5021504;27;119205;-80
2023/06/22 09:10:15;;;;;;;;;;;28.90;80.40;;;29.46;43.13;98493.97;5029080;27;118028;-79
2023/06/22 09:12:44;;;;;;;;;;;29.00;80.10;;;29.51;42.94;98481.22;5024045;27;124345;-80
2023/06/22 09:15:11;;;;;;;;;;;29.00;79.80;;;29.55;42.48;98472.59;5022554;27;124359;-79
2023/06/22 09:17:40;;;;;;;;;;;29.10;79.10;;;29.56;42.67;98485.59;5027269;27;118581;-80
2023/06/22 09:20:07;;;;;;;;;;;29.10;79.20;;;29.58;42.76;98503.00;5023742;27;119250;-81
2023/06/22 09:22:43;;;;;;;;;;;29.20;79.00;;;29.62;42.78;98526.50;5023891;27;124353;-80
2023/06/22 09:25:09;;;;;;;;;;;29.20;79.20;;;29.72;42.45;98508.34;5027061;27;123908;-80
2023/06/22 09:27:36;;;;;;;;;;;29.20;78.70;;;29.76;42.61;98503.34;5007626;28;119465;-81
2023/06/22 09:30:03;;;;;;;;;;;29.30;78.70;;;29.82;42.10;98493.00;5028574;27;119162;-82
2023/06/22 09:32:29;;;;;;;;;;;29.30;78.40;;;29.87;42.02;98483.09;5026030;27;123286;-83
2023/06/22 09:34:58;;;;;;;;;;;29.40;78.20;;;29.93;42.09;98469.91;5012170;27;124362;-82
2023/06/22 09:37:24;;;;;;;;;;;29.40;77.90;;;29.95;41.72;98473.88;5027579;27;119086;-82
2023/06/22 09:39:50;;;;;;;;;;;29.50;77.70;;;29.97;41.79;98458.41;5024571;28;119114;-82
2023/06/22 09:42:17;;;;;;;;;;;29.50;77.10;;;30.01;41.46;98459.09;5026589;27;123575;-83
2023/06/22 09:44:43;;;;;;;;;;;29.50;77.10;;;30.04;41.89;98458.19;5026851;28;123904;-83
2023/06/22 09:47:12;;;;;;;;;;;29.60;77.00;;;30.08;41.72;98458.88;5027302;27;118897;-82
2023/06/22 09:49:38;;;;;;;;;;;29.70;76.70;;;30.14;41.15;98457.88;5024681;27;119547;-83
2023/06/22 09:52:05;;;;;;;;;;;29.70;76.30;;;30.20;41.14;98452.41;5021313;27;125443;-83
2023/06/22 09:54:31;;;;;;;;;;;29.70;76.40;;;30.26;41.39;98444.91;5029031;27;122894;-83
2023/06/22 09:56:58;;;;;;;;;;;29.80;76.10;;;30.33;41.28;98432.47;5015416;27;120020;-82
2023/06/22 09:59:24;;;;;;;;;;;29.90;76.00;;;30.40;41.25;98431.47;5027595;27;118033;-83
2023/06/22 10:01:50;;;;;;;;;;;29.90;75.90;;;30.47;41.05;98425.53;5022807;27;124276;-83
2023/06/22 10:04:17;;;;;;;;;;;29.90;75.80;;;30.54;40.75;98425.28;5023916;27;123900;-79
2023/06/22 10:06:48;;;;;;;;;;;30.00;75.80;;;30.61;40.61;98419.38;5018696;27;118858;-80
2023/06/22 10:09:14;;;;;;;;;;;30.10;75.80;;;30.69;41.20;98414.22;5033635;27;118969;-79
2023/06/22 10:11:40;;;;;;;;;;;30.20;75.70;;;30.76;40.54;98417.63;5018687;27;124132;-80
2023/06/22 10:14:06;;;;;;;;;;;30.20;75.60;;;30.81;40.77;98410.56;5013745;27;123837;-80
2023/06/22 10:16:35;;;;;;;;;;;30.30;75.60;;;30.90;40.84;98407.03;5023464;27;120351;-80
2023/06/22 10:19:01;;;;;;;;;;;30.40;75.30;;;30.95;40.78;98395.00;5024844;27;119937;-79
2023/06/22 10:21:28;;;;;;;;;;;30.40;75.30;;;31.01;40.79;98401.75;5005491;28;123364;-81
2023/06/22 10:23:55;;;;;;;;;;;30.50;74.90;;;31.08;40.04;98395.75;5008791;28;123385;-81
2023/06/22 10:26:21;;;;;;;;;;;30.60;74.60;;;31.16;39.79;98397.09;5013561;27;119535;-81
2023/06/22 10:28:48;;;;;;;;;;;30.60;74.00;;;31.20;39.17;98385.59;5024759;27;118579;-80
2023/06/22 10:31:17;;;;;;;;;;;30.70;73.30;;;31.24;39.29;98392.72;5009151;27;124379;-81
2023/06/22 10:33:44;;;;;;;;;;;30.70;73.00;;;31.28;39.67;98384.06;5023077;27;124160;-81
2023/06/22 10:36:12;;;;;;;;;;;30.80;73.00;;;31.33;39.62;98386.31;5009344;28;118607;-82
2023/06/22 10:38:41;;;;;;;;;;;30.80;73.00;;;31.40;39.56;98394.63;5023088;27;118727;-81
2023/06/22 10:41:08;;;;;;;;;;;30.80;73.10;;;31.52;38.96;98387.28;5012878;28;123748;-80
2023/06/22 10:43:34;;;;;;;;;;;31.00;73.10;;;31.57;39.26;98375.28;5024188;28;125135;-81
2023/06/22 10:46:03;;;;;;;;;;;31.00;72.30;;;31.64;38.99;98369.25;5024811;27;119371;-81
2023/06/22 10:48:29;;;;;;;;;;;31.00;72.50;;;31.72;39.29;98357.56;5023715;28;118884;-81
2023/06/22 10:50:55;;;;;;;;;;;31.20;72.70;;;31.79;39.08;98360.97;5003315;28;123792;-81
2023/06/22 10:53:22;;;;;;;;;;;31.30;72.30;;;31.86;38.81;98374.16;5017207;27;123998;-81
2023/06/22 10:55:48;;;;;;;;;;;31.30;72.00;;;31.93;38.54;98373.91;5017207;27;119311;-81
2023/06/22 10:58:18;;;;;;;;;;;31.40;71.70;;;31.98;38.62;98370.44;5024904;27;118710;-81
2023/06/22 11:00:44;;;;;;;;;;;31.40;71.60;;;32.03;38.69;98366.97;5024092;27;124276;-81
2023/06/22 11:03:11;;;;;;;;;;;30.80;70.60;;;32.09;38.12;98370.81;5021407;27;124056;-81
2023/06/22 11:05:39;;;;;;;;;;;31.50;70.90;;;32.14;38.42;98357.97;5021029;27;121023;-81
2023/06/22 11:08:05;;;;;;;;;;;31.60;70.60;;;32.18;37.89;98360.69;5018201;27;120199;-81
2023/06/22 11:10:32;;;;;;;;;;;31.60;70.10;;;32.19;38.11;98367.97;5025308;28;123219;-81